sensor_id;sensor_type;location;lat;lon;timestamp;temperature;humidity
16863;DHT22;52193;48.216;-1.698;2024-01-30T00:00:38;14.80;99.90
16863;DHT22;52193;48.216;-1.698;2024-01-30T00:03:06;14.80;99.90
16863;DHT22;52193;48.216;-1.698;2024-01-30T00:05:33;14.80;99.90
16863;DHT22;52193;48.216;-1.698;2024-01-30T00:08:00;14.80;99.90
16863;DHT22;52193;48.216;-1.698;2024-01-30T00:10:27;14.80;99.90
16863;DHT22;52193;48.216;-1.698;2024-01-30T00:12:54;14.80;99.90
16863;DHT22;52193;48.216;-1.698;2024-01-30T00:15:21;14.80;99.90
16863;DHT22;52193;48.216;-1.698;2024-01-30T00:17:48;14.70;99.90
16863;DHT22;52193;48.216;-1.698;2024-01-30T00:20:20;14.70;99.90
16863;DHT22;52193;48.216;-1.698;2024-01-30T00:22:47;14.70;99.90
16863;DHT22;52193;48.216;-1.698;2024-01-30T00:25:13;14.70;99.90
16863;DHT22;52193;48.216;-1.698;2024-01-30T00:27:40;14.70;99.90
16863;DHT22;52193;48.216;-1.698;2024-01-30T00:30:08;14.70;99.90
16863;DHT22;52193;48.216;-1.698;2024-01-30T00:32:35;14.70;99.90
16863;DHT22;52193;48.216;-1.698;2024-01-30T00:35:02;14.70;99.90
16863;DHT22;52193;48.216;-1.698;2024-01-30T00:37:30;14.70;99.90
16863;DHT22;52193;48.216;-1.698;2024-01-30T00:39:57;14.70;99.90
16863;DHT22;52193;48.216;-1.698;2024-01-30T00:42:24;14.70;99.90
16863;DHT22;52193;48.216;-1.698;2024-01-30T00:44:51;14.70;99.90
16863;DHT22;52193;48.216;-1.698;2024-01-30T00:47:18;14.70;99.90
16863;DHT22;52193;48.216;-1.698;2024-01-30T00:49:45;14.70;99.90
16863;DHT22;52193;48.216;-1.698;2024-01-30T00:52:12;14.70;99.90
16863;DHT22;52193;48.216;-1.698;2024-01-30T00:54:40;14.60;99.90
16863;DHT22;52193;48.216;-1.698;2024-01-30T00:57:07;14.60;99.90
16863;DHT22;52193;48.216;-1.698;2024-01-30T00:59:34;14.60;99.90
16863;DHT22;52193;48.216;-1.698;2024-01-30T01:02:01;14.60;99.90
16863;DHT22;52193;48.216;-1.698;2024-01-30T01:04:28;14.60;99.90
16863;DHT22;52193;48.216;-1.698;2024-01-30T01:06:55;14.60;99.90
16863;DHT22;52193;48.216;-1.698;2024-01-30T01:09:22;14.60;99.90
16863;DHT22;52193;48.216;-1.698;2024-01-30T01:11:50;14.60;99.90
16863;DHT22;52193;48.216;-1.698;2024-01-30T01:14:17;14.60;99.90
16863;DHT22;52193;48.216;-1.698;2024-01-30T01:16:44;14.60;99.90
16863;DHT22;52193;48.216;-1.698;2024-01-30T01:19:11;14.60;99.90
16863;DHT22;52193;48.216;-1.698;2024-01-30T01:21:37;14.50;99.90
16863;DHT22;52193;48.216;-1.698;2024-01-30T01:24:05;14.50;99.90
16863;DHT22;52193;48.216;-1.698;2024-01-30T01:26:31;14.60;99.90
16863;DHT22;52193;48.216;-1.698;2024-01-30T01:29:00;14.60;99.90
16863;DHT22;52193;48.216;-1.698;2024-01-30T01:31:26;14.60;99.90
16863;DHT22;52193;48.216;-1.698;2024-01-30T01:33:55;14.60;99.90
16863;DHT22;52193;48.216;-1.698;2024-01-30T01:36:22;14.60;99.90
16863;DHT22;52193;48.216;-1.698;2024-01-30T01:38:49;14.60;99.90
16863;DHT22;52193;48.216;-1.698;2024-01-30T01:41:16;14.60;99.90
16863;DHT22;52193;48.216;-1.698;2024-01-30T01:43:42;14.60;99.90
16863;DHT22;52193;48.216;-1.698;2024-01-30T01:46:11;14.60;99.90
16863;DHT22;52193;48.216;-1.698;2024-01-30T01:48:38;14.60;99.90
16863;DHT22;52193;48.216;-1.698;2024-01-30T01:51:06;14.60;99.90
16863;DHT22;52193;48.216;-1.698;2024-01-30T01:53:33;14.60;99.90
16863;DHT22;52193;48.216;-1.698;2024-01-30T01:56:00;14.60;99.90
16863;DHT22;52193;48.216;-1.698;2024-01-30T01:58:28;14.60;99.90
16863;DHT22;52193;48.216;-1.698;2024-01-30T02:00:56;14.60;99.90
16863;DHT22;52193;48.216;-1.698;2024-01-30T02:03:26;14.60;99.90
16863;DHT22;52193;48.216;-1.698;2024-01-30T02:05:53;14.50;99.90
16863;DHT22;52193;48.216;-1.698;2024-01-30T02:08:20;14.50;99.90
16863;DHT22;52193;48.216;-1.698;2024-01-30T02:10:47;14.50;99.90
16863;DHT22;52193;48.216;-1.698;2024-01-30T02:13:14;14.50;99.90
16863;DHT22;52193;48.216;-1.698;2024-01-30T02:15:41;14.40;99.90
16863;DHT22;52193;48.216;-1.698;2024-01-30T02:18:08;14.40;99.90
16863;DHT22;52193;48.216;-1.698;2024-01-30T02:20:37;14.40;99.90
16863;DHT22;52193;48.216;-1.698;2024-01-30T02:23:07;14.40;99.90
16863;DHT22;52193;48.216;-1.698;2024-01-30T02:25:38;14.30;99.90
16863;DHT22;52193;48.216;-1.698;2024-01-30T02:28:09;14.30;99.90
16863;DHT22;52193;48.216;-1.698;2024-01-30T02:30:37;14.40;99.90
16863;DHT22;52193;48.216;-1.698;2024-01-30T02:33:04;14.30;99.90
16863;DHT22;52193;48.216;-1.698;2024-01-30T02:35:31;14.30;99.90
16863;DHT22;52193;48.216;-1.698;2024-01-30T02:37:59;14.30;99.90
16863;DHT22;52193;48.216;-1.698;2024-01-30T02:40:27;14.30;99.90
16863;DHT22;52193;48.216;-1.698;2024-01-30T02:42:54;14.30;99.90
16863;DHT22;52193;48.216;-1.698;2024-01-30T02:45:21;14.30;99.90
16863;DHT22;52193;48.216;-1.698;2024-01-30T02:47:48;14.30;99.90
16863;DHT22;52193;48.216;-1.698;2024-01-30T02:50:15;14.30;99.90
16863;DHT22;52193;48.216;-1.698;2024-01-30T02:52:42;14.40;99.90
16863;DHT22;52193;48.216;-1.698;2024-01-30T02:55:09;14.40;99.90
16863;DHT22;52193;48.216;-1.698;2024-01-30T02:57:38;14.40;99.90
16863;DHT22;52193;48.216;-1.698;2024-01-30T03:00:06;14.50;99.90
16863;DHT22;52193;48.216;-1.698;2024-01-30T03:02:35;14.40;99.90
16863;DHT22;52193;48.216;-1.698;2024-01-30T03:05:02;14.40;99.90
16863;DHT22;52193;48.216;-1.698;2024-01-30T03:07:29;14.40;99.90
16863;DHT22;52193;48.216;-1.698;2024-01-30T03:09:56;14.40;99.90
16863;DHT22;52193;48.216;-1.698;2024-01-30T03:12:23;14.40;99.90
16863;DHT22;52193;48.216;-1.698;2024-01-30T03:14:51;14.40;99.90
16863;DHT22;52193;48.216;-1.698;2024-01-30T03:17:18;14.40;99.90
16863;DHT22;52193;48.216;-1.698;2024-01-30T03:19:45;14.40;99.90
16863;DHT22;52193;48.216;-1.698;2024-01-30T03:22:12;14.50;99.90
16863;DHT22;52193;48.216;-1.698;2024-01-30T03:24:39;14.50;99.90
16863;DHT22;52193;48.216;-1.698;2024-01-30T03:27:06;14.50;99.90
16863;DHT22;52193;48.216;-1.698;2024-01-30T03:29:33;14.50;99.90
16863;DHT22;52193;48.216;-1.698;2024-01-30T03:32:01;14.50;99.90
16863;DHT22;52193;48.216;-1.698;2024-01-30T03:34:29;14.50;99.90
16863;DHT22;52193;48.216;-1.698;2024-01-30T03:36:56;14.50;99.90
16863;DHT22;52193;48.216;-1.698;2024-01-30T03:39:23;14.50;99.90
16863;DHT22;52193;48.216;-1.698;2024-01-30T03:41:50;14.50;99.90
16863;DHT22;52193;48.216;-1.698;2024-01-30T03:44:17;14.50;99.90
16863;DHT22;52193;48.216;-1.698;2024-01-30T03:46:44;14.50;99.90
16863;DHT22;52193;48.216;-1.698;2024-01-30T03:49:12;14.40;99.90
16863;DHT22;52193;48.216;-1.698;2024-01-30T03:51:39;14.40;99.90
16863;DHT22;52193;48.216;-1.698;2024-01-30T03:54:06;14.40;99.90
16863;DHT22;52193;48.216;-1.698;2024-01-30T03:56:32;14.30;99.90
16863;DHT22;52193;48.216;-1.698;2024-01-30T03:58:59;14.30;99.90
16863;DHT22;52193;48.216;-1.698;2024-01-30T04:01:28;14.30;99.90
16863;DHT22;52193;48.216;-1.698;2024-01-30T04:03:55;14.30;99.90
16863;DHT22;52193;48.216;-1.698;2024-01-30T04:06:23;14.30;99.90
16863;DHT22;52193;48.216;-1.698;2024-01-30T04:08:50;14.30;99.90
16863;DHT22;52193;48.216;-1.698;2024-01-30T04:11:18;14.20;99.90
16863;DHT22;52193;48.216;-1.698;2024-01-30T04:13:45;14.20;99.90
16863;DHT22;52193;48.216;-1.698;2024-01-30T04:16:19;14.20;99.90
16863;DHT22;52193;48.216;-1.698;2024-01-30T04:18:47;14.20;99.90
16863;DHT22;52193;48.216;-1.698;2024-01-30T04:21:14;14.30;99.90
16863;DHT22;52193;48.216;-1.698;2024-01-30T04:23:42;14.20;99.90
16863;DHT22;52193;48.216;-1.698;2024-01-30T04:26:09;14.20;99.90
16863;DHT22;52193;48.216;-1.698;2024-01-30T04:28:36;14.20;99.90
16863;DHT22;52193;48.216;-1.698;2024-01-30T04:31:03;14.20;99.90
16863;DHT22;52193;48.216;-1.698;2024-01-30T04:33:30;14.10;99.90
16863;DHT22;52193;48.216;-1.698;2024-01-30T04:35:57;14.10;99.90
16863;DHT22;52193;48.216;-1.698;2024-01-30T04:38:24;14.00;99.90
16863;DHT22;52193;48.216;-1.698;2024-01-30T04:40:52;14.00;99.90
16863;DHT22;52193;48.216;-1.698;2024-01-30T04:43:19;14.00;99.90
16863;DHT22;52193;48.216;-1.698;2024-01-30T04:45:47;14.00;99.90
16863;DHT22;52193;48.216;-1.698;2024-01-30T04:48:14;14.00;99.90
16863;DHT22;52193;48.216;-1.698;2024-01-30T04:50:41;13.90;99.90
16863;DHT22;52193;48.216;-1.698;2024-01-30T04:53:07;13.90;99.90
16863;DHT22;52193;48.216;-1.698;2024-01-30T04:55:35;13.90;99.90
16863;DHT22;52193;48.216;-1.698;2024-01-30T04:58:04;13.90;99.90
16863;DHT22;52193;48.216;-1.698;2024-01-30T05:00:30;13.90;99.90
16863;DHT22;52193;48.216;-1.698;2024-01-30T05:02:57;13.90;99.90
16863;DHT22;52193;48.216;-1.698;2024-01-30T05:05:24;13.80;99.90
16863;DHT22;52193;48.216;-1.698;2024-01-30T05:07:51;13.90;99.90
16863;DHT22;52193;48.216;-1.698;2024-01-30T05:10:18;13.80;99.90
16863;DHT22;52193;48.216;-1.698;2024-01-30T05:12:45;13.80;99.90
16863;DHT22;52193;48.216;-1.698;2024-01-30T05:15:13;13.80;99.90
16863;DHT22;52193;48.216;-1.698;2024-01-30T05:17:40;13.70;99.90
16863;DHT22;52193;48.216;-1.698;2024-01-30T05:20:08;13.70;99.90
16863;DHT22;52193;48.216;-1.698;2024-01-30T05:22:36;13.70;99.90
16863;DHT22;52193;48.216;-1.698;2024-01-30T05:25:03;13.80;99.90
16863;DHT22;52193;48.216;-1.698;2024-01-30T05:27:30;13.80;99.90
16863;DHT22;52193;48.216;-1.698;2024-01-30T05:29:57;13.70;99.90
16863;DHT22;52193;48.216;-1.698;2024-01-30T05:32:25;13.70;99.90
16863;DHT22;52193;48.216;-1.698;2024-01-30T05:34:52;13.70;99.90
16863;DHT22;52193;48.216;-1.698;2024-01-30T05:37:20;13.70;99.90
16863;DHT22;52193;48.216;-1.698;2024-01-30T05:39:46;13.80;99.90
16863;DHT22;52193;48.216;-1.698;2024-01-30T05:42:13;13.80;99.90
16863;DHT22;52193;48.216;-1.698;2024-01-30T05:44:42;13.80;99.90
16863;DHT22;52193;48.216;-1.698;2024-01-30T05:47:09;13.80;99.90
16863;DHT22;52193;48.216;-1.698;2024-01-30T05:49:37;13.80;99.90
16863;DHT22;52193;48.216;-1.698;2024-01-30T05:52:05;13.70;99.90
16863;DHT22;52193;48.216;-1.698;2024-01-30T05:54:32;13.70;99.90
16863;DHT22;52193;48.216;-1.698;2024-01-30T05:56:59;13.70;99.90
16863;DHT22;52193;48.216;-1.698;2024-01-30T05:59:26;13.70;99.90
16863;DHT22;52193;48.216;-1.698;2024-01-30T06:01:53;13.70;99.90
16863;DHT22;52193;48.216;-1.698;2024-01-30T06:04:19;13.70;99.90
16863;DHT22;52193;48.216;-1.698;2024-01-30T06:06:48;13.70;99.90
16863;DHT22;52193;48.216;-1.698;2024-01-30T06:09:14;13.70;99.90
16863;DHT22;52193;48.216;-1.698;2024-01-30T06:11:41;13.70;99.90
16863;DHT22;52193;48.216;-1.698;2024-01-30T06:14:08;13.70;99.90
16863;DHT22;52193;48.216;-1.698;2024-01-30T06:16:35;13.70;99.90
16863;DHT22;52193;48.216;-1.698;2024-01-30T06:19:02;13.70;99.90
16863;DHT22;52193;48.216;-1.698;2024-01-30T06:21:29;13.70;99.90
16863;DHT22;52193;48.216;-1.698;2024-01-30T06:23:57;13.70;99.90
16863;DHT22;52193;48.216;-1.698;2024-01-30T06:26:24;13.70;99.90
16863;DHT22;52193;48.216;-1.698;2024-01-30T06:28:51;13.70;99.90
16863;DHT22;52193;48.216;-1.698;2024-01-30T06:31:18;13.70;99.90
16863;DHT22;52193;48.216;-1.698;2024-01-30T06:33:46;13.60;99.90
16863;DHT22;52193;48.216;-1.698;2024-01-30T06:36:13;13.60;99.90
16863;DHT22;52193;48.216;-1.698;2024-01-30T06:38:40;13.60;99.90
16863;DHT22;52193;48.216;-1.698;2024-01-30T06:41:09;13.70;99.90
16863;DHT22;52193;48.216;-1.698;2024-01-30T06:43:36;13.60;99.90
16863;DHT22;52193;48.216;-1.698;2024-01-30T06:46:03;13.60;99.90
16863;DHT22;52193;48.216;-1.698;2024-01-30T06:48:29;13.60;99.90
16863;DHT22;52193;48.216;-1.698;2024-01-30T06:50:57;13.60;99.90
16863;DHT22;52193;48.216;-1.698;2024-01-30T06:53:24;13.50;99.90
16863;DHT22;52193;48.216;-1.698;2024-01-30T06:55:52;13.50;99.90
16863;DHT22;52193;48.216;-1.698;2024-01-30T06:58:20;13.50;99.90
16863;DHT22;52193;48.216;-1.698;2024-01-30T07:00:47;13.40;99.90
16863;DHT22;52193;48.216;-1.698;2024-01-30T07:03:13;13.40;99.90
16863;DHT22;52193;48.216;-1.698;2024-01-30T07:05:40;13.40;99.90
16863;DHT22;52193;48.216;-1.698;2024-01-30T07:08:08;13.40;99.90
16863;DHT22;52193;48.216;-1.698;2024-01-30T07:10:35;13.40;99.90
16863;DHT22;52193;48.216;-1.698;2024-01-30T07:13:02;13.40;99.90
16863;DHT22;52193;48.216;-1.698;2024-01-30T07:15:31;13.30;99.90
16863;DHT22;52193;48.216;-1.698;2024-01-30T07:17:58;13.30;99.90
16863;DHT22;52193;48.216;-1.698;2024-01-30T07:20:25;13.30;99.90
16863;DHT22;52193;48.216;-1.698;2024-01-30T07:22:51;13.30;99.90
16863;DHT22;52193;48.216;-1.698;2024-01-30T07:25:18;13.20;99.90
16863;DHT22;52193;48.216;-1.698;2024-01-30T07:27:47;13.20;99.90
16863;DHT22;52193;48.216;-1.698;2024-01-30T07:30:14;13.20;99.90
16863;DHT22;52193;48.216;-1.698;2024-01-30T07:32:44;13.20;99.90
16863;DHT22;52193;48.216;-1.698;2024-01-30T07:35:11;13.20;99.90
16863;DHT22;52193;48.216;-1.698;2024-01-30T07:37:38;13.20;99.90
16863;DHT22;52193;48.216;-1.698;2024-01-30T07:40:05;13.20;99.90
16863;DHT22;52193;48.216;-1.698;2024-01-30T07:42:33;13.20;99.90
16863;DHT22;52193;48.216;-1.698;2024-01-30T07:45:00;13.20;99.90
16863;DHT22;52193;48.216;-1.698;2024-01-30T07:47:27;13.20;99.90
16863;DHT22;52193;48.216;-1.698;2024-01-30T07:49:55;13.20;99.90
16863;DHT22;52193;48.216;-1.698;2024-01-30T07:52:22;13.20;99.90
16863;DHT22;52193;48.216;-1.698;2024-01-30T07:54:49;13.10;99.90
16863;DHT22;52193;48.216;-1.698;2024-01-30T07:57:16;13.10;99.90
16863;DHT22;52193;48.216;-1.698;2024-01-30T07:59:44;13.00;99.90
16863;DHT22;52193;48.216;-1.698;2024-01-30T08:02:12;13.10;99.90
16863;DHT22;52193;48.216;-1.698;2024-01-30T08:04:46;13.00;99.90
16863;DHT22;52193;48.216;-1.698;2024-01-30T08:07:16;13.00;99.90
16863;DHT22;52193;48.216;-1.698;2024-01-30T08:09:44;13.00;99.90
16863;DHT22;52193;48.216;-1.698;2024-01-30T08:12:10;12.90;99.90
16863;DHT22;52193;48.216;-1.698;2024-01-30T08:14:38;12.90;99.90
16863;DHT22;52193;48.216;-1.698;2024-01-30T08:17:05;12.90;99.90
16863;DHT22;52193;48.216;-1.698;2024-01-30T08:19:33;12.90;99.90
16863;DHT22;52193;48.216;-1.698;2024-01-30T08:22:00;12.90;99.90
16863;DHT22;52193;48.216;-1.698;2024-01-30T08:24:28;12.90;99.90
16863;DHT22;52193;48.216;-1.698;2024-01-30T08:26:55;12.90;99.90
16863;DHT22;52193;48.216;-1.698;2024-01-30T08:29:21;12.90;99.90
16863;DHT22;52193;48.216;-1.698;2024-01-30T08:31:48;12.90;99.90
16863;DHT22;52193;48.216;-1.698;2024-01-30T08:34:15;12.90;99.90
16863;DHT22;52193;48.216;-1.698;2024-01-30T08:36:42;12.90;99.90
16863;DHT22;52193;48.216;-1.698;2024-01-30T08:39:10;12.90;99.90
16863;DHT22;52193;48.216;-1.698;2024-01-30T08:41:38;12.90;99.90
16863;DHT22;52193;48.216;-1.698;2024-01-30T08:44:05;12.90;99.90
16863;DHT22;52193;48.216;-1.698;2024-01-30T08:46:32;12.80;99.90
16863;DHT22;52193;48.216;-1.698;2024-01-30T08:49:00;12.80;99.90
16863;DHT22;52193;48.216;-1.698;2024-01-30T08:51:27;12.80;99.90
16863;DHT22;52193;48.216;-1.698;2024-01-30T08:53:53;12.80;99.90
16863;DHT22;52193;48.216;-1.698;2024-01-30T08:56:20;12.70;99.90
16863;DHT22;52193;48.216;-1.698;2024-01-30T08:58:48;12.70;99.90
16863;DHT22;52193;48.216;-1.698;2024-01-30T09:01:16;12.60;99.90
16863;DHT22;52193;48.216;-1.698;2024-01-30T09:03:43;12.60;99.90
16863;DHT22;52193;48.216;-1.698;2024-01-30T09:06:11;12.60;99.90
16863;DHT22;52193;48.216;-1.698;2024-01-30T09:08:39;12.60;99.90
16863;DHT22;52193;48.216;-1.698;2024-01-30T09:11:09;12.60;99.90
16863;DHT22;52193;48.216;-1.698;2024-01-30T09:13:36;12.60;99.90
16863;DHT22;52193;48.216;-1.698;2024-01-30T09:16:05;12.60;99.90
16863;DHT22;52193;48.216;-1.698;2024-01-30T09:18:33;12.60;99.90
16863;DHT22;52193;48.216;-1.698;2024-01-30T09:21:00;12.60;99.90
16863;DHT22;52193;48.216;-1.698;2024-01-30T09:23:27;12.60;99.90
16863;DHT22;52193;48.216;-1.698;2024-01-30T09:25:54;12.60;99.90
16863;DHT22;52193;48.216;-1.698;2024-01-30T09:28:21;12.70;99.90
16863;DHT22;52193;48.216;-1.698;2024-01-30T09:30:48;12.70;99.90
16863;DHT22;52193;48.216;-1.698;2024-01-30T09:33:16;12.70;99.90
16863;DHT22;52193;48.216;-1.698;2024-01-30T09:35:43;12.70;99.90
16863;DHT22;52193;48.216;-1.698;2024-01-30T09:38:10;12.80;99.90
16863;DHT22;52193;48.216;-1.698;2024-01-30T09:40:37;12.80;99.90
16863;DHT22;52193;48.216;-1.698;2024-01-30T09:43:04;12.80;99.90
16863;DHT22;52193;48.216;-1.698;2024-01-30T09:45:32;12.80;99.90
16863;DHT22;52193;48.216;-1.698;2024-01-30T09:48:00;12.80;99.90
16863;DHT22;52193;48.216;-1.698;2024-01-30T09:50:29;12.80;99.90
16863;DHT22;52193;48.216;-1.698;2024-01-30T09:52:57;12.80;99.90
16863;DHT22;52193;48.216;-1.698;2024-01-30T09:55:25;12.80;99.90
16863;DHT22;52193;48.216;-1.698;2024-01-30T09:57:53;12.80;99.90
16863;DHT22;52193;48.216;-1.698;2024-01-30T10:00:19;12.80;99.90
16863;DHT22;52193;48.216;-1.698;2024-01-30T10:02:48;12.80;99.90
16863;DHT22;52193;48.216;-1.698;2024-01-30T10:05:16;12.80;99.90
16863;DHT22;52193;48.216;-1.698;2024-01-30T10:07:55;12.80;99.90
16863;DHT22;52193;48.216;-1.698;2024-01-30T10:10:22;12.80;99.90
16863;DHT22;52193;48.216;-1.698;2024-01-30T10:12:50;12.80;99.90
16863;DHT22;52193;48.216;-1.698;2024-01-30T10:15:17;12.80;99.90
16863;DHT22;52193;48.216;-1.698;2024-01-30T10:17:45;12.90;99.90
16863;DHT22;52193;48.216;-1.698;2024-01-30T10:20:12;12.90;99.90
16863;DHT22;52193;48.216;-1.698;2024-01-30T10:22:40;12.90;99.90
16863;DHT22;52193;48.216;-1.698;2024-01-30T10:25:09;12.90;99.90
16863;DHT22;52193;48.216;-1.698;2024-01-30T10:27:36;12.90;99.90
16863;DHT22;52193;48.216;-1.698;2024-01-30T10:30:04;12.90;99.90
16863;DHT22;52193;48.216;-1.698;2024-01-30T10:32:31;13.00;99.90
16863;DHT22;52193;48.216;-1.698;2024-01-30T10:34:58;13.00;99.90
16863;DHT22;52193;48.216;-1.698;2024-01-30T10:37:26;13.00;99.90
16863;DHT22;52193;48.216;-1.698;2024-01-30T10:39:54;13.00;99.90
16863;DHT22;52193;48.216;-1.698;2024-01-30T10:42:26;13.00;99.90
16863;DHT22;52193;48.216;-1.698;2024-01-30T10:44:59;13.10;99.90
16863;DHT22;52193;48.216;-1.698;2024-01-30T10:47:28;13.20;99.90
16863;DHT22;52193;48.216;-1.698;2024-01-30T10:49:55;13.20;99.90
16863;DHT22;52193;48.216;-1.698;2024-01-30T10:52:23;13.30;99.90
16863;DHT22;52193;48.216;-1.698;2024-01-30T10:54:51;13.30;99.90
16863;DHT22;52193;48.216;-1.698;2024-01-30T10:57:18;13.40;99.90
16863;DHT22;52193;48.216;-1.698;2024-01-30T10:59:47;13.40;99.90
16863;DHT22;52193;48.216;-1.698;2024-01-30T11:02:14;13.50;99.90
16863;DHT22;52193;48.216;-1.698;2024-01-30T11:04:41;13.50;99.90
16863;DHT22;52193;48.216;-1.698;2024-01-30T11:07:15;13.60;99.90
16863;DHT22;52193;48.216;-1.698;2024-01-30T11:09:48;13.60;99.90
16863;DHT22;52193;48.216;-1.698;2024-01-30T11:12:16;13.60;99.90
16863;DHT22;52193;48.216;-1.698;2024-01-30T11:14:43;13.60;99.90
16863;DHT22;52193;48.216;-1.698;2024-01-30T11:17:11;13.70;99.90
16863;DHT22;52193;48.216;-1.698;2024-01-30T11:19:38;13.70;99.90
16863;DHT22;52193;48.216;-1.698;2024-01-30T11:22:08;13.80;99.90
16863;DHT22;52193;48.216;-1.698;2024-01-30T11:24:39;13.80;99.90
16863;DHT22;52193;48.216;-1.698;2024-01-30T11:27:09;13.90;99.90
16863;DHT22;52193;48.216;-1.698;2024-01-30T11:29:36;13.90;99.90
16863;DHT22;52193;48.216;-1.698;2024-01-30T11:32:03;14.00;99.90
16863;DHT22;52193;48.216;-1.698;2024-01-30T11:34:32;14.00;99.90
16863;DHT22;52193;48.216;-1.698;2024-01-30T11:37:01;14.10;99.90
16863;DHT22;52193;48.216;-1.698;2024-01-30T11:39:29;14.10;99.90
16863;DHT22;52193;48.216;-1.698;2024-01-30T11:41:57;14.10;99.90
16863;DHT22;52193;48.216;-1.698;2024-01-30T11:44:25;14.20;99.90
16863;DHT22;52193;48.216;-1.698;2024-01-30T11:46:52;14.10;99.90
16863;DHT22;52193;48.216;-1.698;2024-01-30T11:49:19;14.10;99.90
16863;DHT22;52193;48.216;-1.698;2024-01-30T11:51:47;14.20;99.90
16863;DHT22;52193;48.216;-1.698;2024-01-30T11:54:15;14.10;99.90
16863;DHT22;52193;48.216;-1.698;2024-01-30T11:56:42;14.10;99.90
16863;DHT22;52193;48.216;-1.698;2024-01-30T11:59:10;14.10;99.90
16863;DHT22;52193;48.216;-1.698;2024-01-30T12:01:36;14.10;99.90
16863;DHT22;52193;48.216;-1.698;2024-01-30T12:04:04;14.10;99.90
16863;DHT22;52193;48.216;-1.698;2024-01-30T12:06:34;14.10;99.90
16863;DHT22;52193;48.216;-1.698;2024-01-30T12:09:03;14.10;99.90
16863;DHT22;52193;48.216;-1.698;2024-01-30T12:11:30;14.10;99.90
16863;DHT22;52193;48.216;-1.698;2024-01-30T12:13:57;14.10;99.90
16863;DHT22;52193;48.216;-1.698;2024-01-30T12:16:24;14.10;99.90
16863;DHT22;52193;48.216;-1.698;2024-01-30T12:18:59;14.10;99.90
16863;DHT22;52193;48.216;-1.698;2024-01-30T12:21:26;14.10;99.90
16863;DHT22;52193;48.216;-1.698;2024-01-30T12:23:54;14.20;99.90
16863;DHT22;52193;48.216;-1.698;2024-01-30T12:26:23;14.20;99.90
16863;DHT22;52193;48.216;-1.698;2024-01-30T12:28:50;14.30;99.90
16863;DHT22;52193;48.216;-1.698;2024-01-30T12:31:17;14.30;99.90
16863;DHT22;52193;48.216;-1.698;2024-01-30T12:33:44;14.30;99.90
16863;DHT22;52193;48.216;-1.698;2024-01-30T12:36:11;14.40;99.90
16863;DHT22;52193;48.216;-1.698;2024-01-30T12:38:38;14.40;99.90
16863;DHT22;52193;48.216;-1.698;2024-01-30T12:41:07;14.50;99.90
16863;DHT22;52193;48.216;-1.698;2024-01-30T12:43:37;14.60;99.90
16863;DHT22;52193;48.216;-1.698;2024-01-30T12:46:05;14.70;99.90
16863;DHT22;52193;48.216;-1.698;2024-01-30T12:48:32;14.70;99.90
16863;DHT22;52193;48.216;-1.698;2024-01-30T12:50:59;14.80;99.90
16863;DHT22;52193;48.216;-1.698;2024-01-30T12:53:26;14.90;99.90
16863;DHT22;52193;48.216;-1.698;2024-01-30T12:55:53;15.00;99.90
16863;DHT22;52193;48.216;-1.698;2024-01-30T12:58:20;15.10;99.90
16863;DHT22;52193;48.216;-1.698;2024-01-30T13:00:49;15.10;99.90
16863;DHT22;52193;48.216;-1.698;2024-01-30T13:03:16;15.20;99.90
16863;DHT22;52193;48.216;-1.698;2024-01-30T13:05:42;15.20;99.90
16863;DHT22;52193;48.216;-1.698;2024-01-30T13:08:09;15.20;99.90
16863;DHT22;52193;48.216;-1.698;2024-01-30T13:10:36;15.20;99.90
16863;DHT22;52193;48.216;-1.698;2024-01-30T13:13:03;15.20;99.90
16863;DHT22;52193;48.216;-1.698;2024-01-30T13:15:30;15.20;99.90
16863;DHT22;52193;48.216;-1.698;2024-01-30T13:17:58;15.20;99.90
16863;DHT22;52193;48.216;-1.698;2024-01-30T13:20:25;15.20;99.90
16863;DHT22;52193;48.216;-1.698;2024-01-30T13:22:52;15.20;99.90
16863;DHT22;52193;48.216;-1.698;2024-01-30T13:25:19;15.20;99.90
16863;DHT22;52193;48.216;-1.698;2024-01-30T13:27:46;15.10;99.90
16863;DHT22;52193;48.216;-1.698;2024-01-30T13:30:13;15.10;99.90
16863;DHT22;52193;48.216;-1.698;2024-01-30T13:32:40;15.20;99.90
16863;DHT22;52193;48.216;-1.698;2024-01-30T13:35:11;15.10;99.90
16863;DHT22;52193;48.216;-1.698;2024-01-30T13:37:37;15.10;99.90
16863;DHT22;52193;48.216;-1.698;2024-01-30T13:40:06;15.10;99.90
16863;DHT22;52193;48.216;-1.698;2024-01-30T13:42:34;15.10;99.90
16863;DHT22;52193;48.216;-1.698;2024-01-30T13:45:01;15.10;99.90
16863;DHT22;52193;48.216;-1.698;2024-01-30T13:47:28;15.00;99.90
16863;DHT22;52193;48.216;-1.698;2024-01-30T13:49:55;15.10;99.90
16863;DHT22;52193;48.216;-1.698;2024-01-30T13:52:23;15.10;99.90
16863;DHT22;52193;48.216;-1.698;2024-01-30T13:54:50;15.20;99.90
16863;DHT22;52193;48.216;-1.698;2024-01-30T13:57:17;15.20;99.90
16863;DHT22;52193;48.216;-1.698;2024-01-30T13:59:44;15.20;99.90
16863;DHT22;52193;48.216;-1.698;2024-01-30T14:02:11;15.20;99.90
16863;DHT22;52193;48.216;-1.698;2024-01-30T14:04:38;15.20;99.90
16863;DHT22;52193;48.216;-1.698;2024-01-30T14:07:05;15.20;99.90
16863;DHT22;52193;48.216;-1.698;2024-01-30T14:09:34;15.20;99.90
16863;DHT22;52193;48.216;-1.698;2024-01-30T14:12:01;15.20;99.90
16863;DHT22;52193;48.216;-1.698;2024-01-30T14:14:28;15.20;99.90
16863;DHT22;52193;48.216;-1.698;2024-01-30T14:16:55;15.20;99.90
16863;DHT22;52193;48.216;-1.698;2024-01-30T14:19:22;15.20;99.90
16863;DHT22;52193;48.216;-1.698;2024-01-30T14:21:49;15.20;99.90
16863;DHT22;52193;48.216;-1.698;2024-01-30T14:24:16;15.20;99.90
16863;DHT22;52193;48.216;-1.698;2024-01-30T14:26:44;15.20;99.90
16863;DHT22;52193;48.216;-1.698;2024-01-30T14:29:12;15.20;99.90
16863;DHT22;52193;48.216;-1.698;2024-01-30T14:31:39;15.20;99.90
16863;DHT22;52193;48.216;-1.698;2024-01-30T14:34:06;15.20;99.90
16863;DHT22;52193;48.216;-1.698;2024-01-30T14:36:33;15.20;99.90
16863;DHT22;52193;48.216;-1.698;2024-01-30T14:39:00;15.20;99.90
16863;DHT22;52193;48.216;-1.698;2024-01-30T14:41:28;15.20;99.90
16863;DHT22;52193;48.216;-1.698;2024-01-30T14:43:56;15.20;99.90
16863;DHT22;52193;48.216;-1.698;2024-01-30T14:46:23;15.30;99.90
16863;DHT22;52193;48.216;-1.698;2024-01-30T14:48:52;15.30;99.90
16863;DHT22;52193;48.216;-1.698;2024-01-30T14:51:20;15.20;99.90
16863;DHT22;52193;48.216;-1.698;2024-01-30T14:53:46;15.20;99.90
16863;DHT22;52193;48.216;-1.698;2024-01-30T14:56:13;15.20;99.90
16863;DHT22;52193;48.216;-1.698;2024-01-30T14:58:40;15.20;99.90
16863;DHT22;52193;48.216;-1.698;2024-01-30T15:01:10;15.20;99.90
16863;DHT22;52193;48.216;-1.698;2024-01-30T15:03:37;15.20;99.90
16863;DHT22;52193;48.216;-1.698;2024-01-30T15:06:05;15.20;99.90
16863;DHT22;52193;48.216;-1.698;2024-01-30T15:08:32;15.10;99.90
16863;DHT22;52193;48.216;-1.698;2024-01-30T15:10:59;15.10;99.90
16863;DHT22;52193;48.216;-1.698;2024-01-30T15:13:29;15.10;99.90
16863;DHT22;52193;48.216;-1.698;2024-01-30T15:15:56;15.10;99.90